Time;durP1;ratioP1;P1;durP2;ratioP2;P2;SDS_P1;SDS_P2;PMS_P1;PMS_P2;Temp;Humidity;BMP_temperature;BMP_pressure;BME280_temperature;BME280_humidity;BME280_pressure;Samples;Min_cycle;Max_cycle;Signal;HPM_P1;HPM_P2
2023/05/11 00:02:00;;;;;;;0.50;0.50;;;14.70;99.90;;;14.92;nan;100427.59;4953049;28;20642;-68
2023/05/11 00:04:27;;;;;;;0.70;0.70;;;14.70;99.90;;;14.88;nan;100423.59;4951459;28;21045;-67
2023/05/11 00:06:55;;;;;;;0.60;0.60;;;14.60;99.90;;;14.85;nan;100423.84;4952739;28;21137;-65
2023/05/11 00:09:22;;;;;;;0.50;0.50;;;14.60;99.90;;;14.82;nan;100429.41;4953113;28;20639;-68
2023/05/11 00:11:52;;;;;;;0.43;0.43;;;14.50;99.90;;;14.81;nan;100426.91;4954982;28;20998;-67
2023/05/11 00:14:19;;;;;;;0.60;0.60;;;14.50;99.90;;;14.80;nan;100433.94;4950553;29;20651;-66
2023/05/11 00:16:46;;;;;;;0.60;0.60;;;14.50;99.90;;;14.73;nan;100427.63;4955902;28;20628;-67
2023/05/11 00:19:13;;;;;;;1.90;0.63;;;14.50;99.90;;;14.65;nan;100438.81;4952261;28;20676;-67
2023/05/11 00:21:40;;;;;;;0.50;0.50;;;14.40;99.90;;;14.62;nan;100435.66;4952511;28;20649;-68
2023/05/11 00:24:07;;;;;;;0.73;0.73;;;14.40;99.90;;;14.57;nan;100430.81;4952793;28;20640;-67
2023/05/11 00:26:34;;;;;;;0.60;0.60;;;14.30;99.90;;;14.60;nan;100432.34;4954212;28;20620;-67
2023/05/11 00:29:01;;;;;;;0.63;0.60;;;14.30;99.90;;;14.60;nan;100425.31;4953942;28;20655;-68
2023/05/11 00:31:28;;;;;;;0.50;0.50;;;14.40;99.90;;;14.63;nan;100413.66;4954080;28;21223;-67
2023/05/11 00:33:56;;;;;;;0.70;0.70;;;14.30;99.90;;;14.65;nan;100424.88;4953178;28;20635;-68
2023/05/11 00:36:23;;;;;;;2.00;1.07;;;14.40;99.90;;;14.64;nan;100425.84;4952840;28;21176;-67
2023/05/11 00:38:51;;;;;;;0.60;0.60;;;14.40;99.90;;;14.63;nan;100424.19;4951871;28;20687;-69
2023/05/11 00:41:18;;;;;;;1.10;0.90;;;14.30;99.90;;;14.64;nan;100428.47;4953808;29;20627;-67
2023/05/11 00:43:45;;;;;;;0.63;0.63;;;14.40;99.90;;;14.61;nan;100420.88;4948973;28;20686;-67
2023/05/11 00:46:12;;;;;;;1.30;0.80;;;14.30;99.90;;;14.56;nan;100420.47;4953881;28;21071;-69
2023/05/11 00:48:39;;;;;;;0.60;0.60;;;14.30;99.90;;;14.53;nan;100418.94;4951425;28;20668;-67
2023/05/11 00:51:07;;;;;;;0.70;0.60;;;14.30;99.90;;;14.50;nan;100421.84;4953388;28;20690;-68
2023/05/11 00:53:34;;;;;;;0.60;0.60;;;14.20;99.90;;;14.46;nan;100425.72;4952748;29;21270;-68
2023/05/11 00:56:01;;;;;;;0.60;0.60;;;14.20;99.90;;;14.41;nan;100417.47;4952832;28;20640;-67
2023/05/11 00:58:28;;;;;;;0.97;0.70;;;14.20;99.90;;;14.39;nan;100414.16;4952295;29;21232;-68
2023/05/11 01:00:55;;;;;;;0.60;0.60;;;14.10;99.90;;;14.40;nan;100417.56;4950977;29;21024;-67
2023/05/11 01:03:23;;;;;;;0.73;0.73;;;14.10;99.90;;;14.38;nan;100412.47;4952903;28;20658;-69
2023/05/11 01:06:03;;;;;;;0.50;0.50;;;14.10;99.90;;;14.37;nan;100417.88;4948958;28;20612;-67
2023/05/11 01:08:50;;;;;;;0.53;0.53;;;14.10;99.90;;;14.38;nan;100425.59;4944631;29;20687;-67
2023/05/11 01:11:48;;;;;;;0.67;0.67;;;14.10;99.90;;;14.39;nan;100423.81;4949075;28;20651;-69
2023/05/11 01:14:26;;;;;;;0.50;0.50;;;14.10;99.90;;;14.39;nan;100423.81;4953787;28;20650;-69
2023/05/11 01:17:01;;;;;;;0.70;0.70;;;14.10;99.90;;;14.39;nan;100422.03;4951718;28;20631;-69
2023/05/11 01:19:56;;;;;;;0.50;0.50;;;14.10;99.90;;;14.35;nan;100422.44;4953346;28;20671;-67
2023/05/11 01:22:46;;;;;;;0.57;0.57;;;14.10;99.90;;;14.35;nan;100418.00;4951801;29;20643;-69
2023/05/11 01:25:37;;;;;;;0.50;0.50;;;14.10;99.90;;;14.37;nan;100420.50;4944559;28;20990;-67
2023/05/11 01:28:29;;;;;;;0.50;0.50;;;14.10;99.90;;;14.31;nan;100414.00;4954768;28;20671;-67
2023/05/11 01:31:09;;;;;;;0.60;0.60;;;14.10;99.90;;;14.26;nan;100416.19;4953705;28;20631;-67
2023/05/11 01:33:43;;;;;;;0.57;0.57;;;14.00;99.90;;;14.24;nan;100414.66;4950687;29;20668;-67
2023/05/11 01:36:12;;;;;;;0.57;0.57;;;14.00;99.90;;;14.18;nan;100420.47;4954153;28;20631;-67
2023/05/11 01:38:41;;;;;;;0.60;0.60;;;13.90;99.90;;;14.13;nan;100414.81;4949822;29;20714;-67
2023/05/11 01:41:14;;;;;;;0.70;0.50;;;13.90;99.90;;;14.07;nan;100410.94;4944528;29;20612;-67
2023/05/11 01:43:46;;;;;;;0.60;0.60;;;13.80;99.90;;;14.03;nan;100423.50;4953339;28;20612;-65
2023/05/11 01:46:15;;;;;;;0.50;0.50;;;13.80;99.90;;;14.04;nan;100426.94;4949958;29;20624;-67
2023/05/11 01:48:48;;;;;;;0.57;0.57;;;13.80;99.90;;;14.00;nan;100415.91;4933420;29;20661;-67
2023/05/11 01:51:16;;;;;;;0.90;0.90;;;13.80;99.90;;;13.97;nan;100418.78;4968894;28;21053;-68
2023/05/11 01:53:44;;;;;;;0.40;0.40;;;13.70;99.90;;;13.94;nan;100423.50;4950439;28;20648;-69
2023/05/11 01:56:13;;;;;;;0.40;0.40;;;13.70;99.90;;;13.93;nan;100422.66;4951266;28;20699;-68
2023/05/11 01:58:41;;;;;;;0.50;0.50;;;13.70;99.90;;;13.89;nan;100421.28;4964540;28;20683;-67
2023/05/11 02:01:10;;;;;;;0.50;0.50;;;13.70;99.90;;;13.87;nan;100428.47;4945095;28;20655;-70
2023/05/11 02:03:38;;;;;;;0.60;0.60;;;13.60;99.90;;;13.83;nan;100418.38;4945947;29;21231;-67
2023/05/11 02:06:06;;;;;;;0.50;0.50;;;13.60;99.90;;;13.82;nan;100424.59;4948084;28;20636;-67
2023/05/11 02:08:34;;;;;;;0.60;0.60;;;13.60;99.90;;;13.79;nan;100415.19;4941940;29;20680;-67
2023/05/11 02:11:03;;;;;;;0.50;0.50;;;13.60;99.90;;;13.79;nan;100415.19;4948990;29;20663;-68
2023/05/11 02:13:32;;;;;;;0.77;0.60;;;13.60;99.90;;;13.78;nan;100416.16;4949259;29;21063;-67
2023/05/11 02:16:01;;;;;;;0.60;0.60;;;13.50;99.90;;;13.78;nan;100413.53;4951902;28;20640;-67
2023/05/11 02:18:29;;;;;;;1.07;0.70;;;13.50;99.90;;;13.77;nan;100411.88;4950730;28;21067;-68
2023/05/11 02:20:59;;;;;;;0.80;0.80;;;13.50;99.90;;;13.74;nan;100412.16;4944383;28;21101;-67
2023/05/11 02:23:27;;;;;;;0.70;0.70;;;13.50;99.90;;;13.71;nan;100407.19;4937713;28;20641;-67
2023/05/11 02:25:54;;;;;;;0.60;0.60;;;13.50;99.90;;;13.69;nan;100409.09;4965026;28;20662;-67
2023/05/11 02:28:21;;;;;;;0.60;0.60;;;13.40;99.90;;;13.66;nan;100406.75;4950423;28;20682;-67
2023/05/11 02:30:55;;;;;;;1.00;0.70;;;13.40;99.90;;;13.66;nan;100398.06;4951378;28;20641;-66
2023/05/11 02:33:35;;;;;;;0.50;0.50;;;13.40;99.90;;;13.67;nan;100410.22;4938785;29;20620;-67
2023/05/11 02:36:05;;;;;;;0.77;0.70;;;13.40;99.90;;;13.65;nan;100407.72;4949057;29;20632;-66
2023/05/11 02:38:34;;;;;;;0.70;0.70;;;13.40;99.90;;;13.66;nan;100405.91;4950830;29;20706;-66
2023/05/11 02:41:08;;;;;;;0.63;0.63;;;13.40;99.90;;;13.67;nan;100399.72;4951033;29;21502;-69
2023/05/11 02:43:43;;;;;;;0.47;0.47;;;13.40;99.90;;;13.66;nan;100401.50;4952050;29;21228;-68
2023/05/11 02:46:21;;;;;;;0.80;0.80;;;13.40;99.90;;;13.61;nan;100402.88;4951931;28;20638;-67
2023/05/11 02:48:54;;;;;;;0.40;0.40;;;13.40;99.90;;;13.55;nan;100401.63;4951810;28;21518;-67
2023/05/11 02:51:30;;;;;;;0.53;0.53;;;13.40;99.90;;;13.51;nan;100410.72;4948595;29;20624;-69
2023/05/11 02:53:59;;;;;;;0.90;0.70;;;13.30;99.90;;;13.49;nan;100403.94;4951323;29;21067;-68
2023/05/11 02:56:28;;;;;;;0.60;0.60;;;13.30;99.90;;;13.47;nan;100405.88;4948785;29;21024;-67
2023/05/11 02:58:55;;;;;;;0.70;0.60;;;13.20;99.90;;;13.42;nan;100403.66;4950649;29;20672;-67
2023/05/11 03:01:23;;;;;;;2.73;0.70;;;13.20;99.90;;;13.43;nan;100407.94;4948636;28;20640;-67
2023/05/11 03:03:52;;;;;;;0.50;0.50;;;13.20;99.90;;;13.42;nan;100408.06;4949700;29;21091;-68
2023/05/11 03:06:19;;;;;;;0.70;0.70;;;13.20;99.90;;;13.44;nan;100403.53;4951610;28;20640;-67
2023/05/11 03:08:46;;;;;;;0.50;0.50;;;13.20;99.90;;;13.43;nan;100402.72;4951228;28;20664;-67
2023/05/11 03:11:15;;;;;;;0.63;0.63;;;13.20;99.90;;;13.43;nan;100400.09;4951913;29;20632;-67
2023/05/11 03:13:43;;;;;;;0.80;0.80;;;13.20;99.90;;;13.43;nan;100407.94;4950940;28;20716;-68
2023/05/11 03:16:14;;;;;;;0.90;0.60;;;13.20;99.90;;;13.43;nan;100402.72;4952388;28;21015;-67
2023/05/11 03:18:42;;;;;;;1.33;1.23;;;13.20;99.90;;;13.36;nan;100405.97;4951031;28;20680;-67
2023/05/11 03:21:09;;;;;;;0.60;0.60;;;13.10;99.90;;;13.24;nan;100410.50;4948888;28;20632;-67
2023/05/11 03:23:38;;;;;;;0.60;0.60;;;13.10;99.90;;;13.21;nan;100403.72;4972629;28;20623;-66
2023/05/11 03:26:06;;;;;;;0.47;0.47;;;13.00;99.90;;;13.20;nan;100417.78;4971709;28;20631;-67
2023/05/11 03:28:34;;;;;;;0.57;0.57;;;13.00;99.90;;;13.20;nan;100414.34;4968641;28;20647;-67
2023/05/11 03:31:02;;;;;;;0.77;0.60;;;13.00;99.90;;;13.18;nan;100411.03;4952654;28;20620;-67
2023/05/11 03:33:29;;;;;;;0.97;0.97;;;12.90;99.90;;;13.15;nan;100409.50;4966474;28;20628;-67
2023/05/11 03:35:57;;;;;;;0.90;0.90;;;12.90;99.90;;;13.16;nan;100412.97;4959873;28;20635;-69
2023/05/11 03:38:27;;;;;;;0.90;0.90;;;12.90;99.90;;;13.16;nan;100411.16;4961877;28;20698;-68
2023/05/11 03:40:59;;;;;;;0.80;0.80;;;12.90;99.90;;;13.19;nan;100410.06;4967282;28;20675;-69
2023/05/11 03:43:31;;;;;;;1.10;1.10;;;13.00;99.90;;;13.21;nan;100413.38;4934606;29;20699;-70
2023/05/11 03:45:59;;;;;;;5.23;1.13;;;13.00;99.90;;;13.25;nan;100412.16;4942699;28;20640;-68
2023/05/11 03:48:26;;;;;;;1.13;1.03;;;13.00;99.90;;;13.27;nan;100406.78;4946433;29;20814;-68
2023/05/11 03:50:54;;;;;;;1.10;1.03;;;13.00;99.90;;;13.30;nan;100402.09;4965694;28;20614;-67
2023/05/11 03:53:24;;;;;;;0.97;0.97;;;13.10;99.90;;;13.33;nan;100401.03;4948889;28;21005;-67
2023/05/11 03:55:54;;;;;;;0.83;0.67;;;13.10;99.90;;;13.32;nan;100413.28;4952530;28;20600;-68
2023/05/11 03:58:32;;;;;;;1.10;1.00;;;13.10;99.90;;;13.32;nan;100399.34;4951098;28;20643;-69
2023/05/11 04:00:59;;;;;;;1.40;1.03;;;13.10;99.90;;;13.31;nan;100414.22;4950553;28;20671;-70
2023/05/11 04:03:26;;;;;;;1.00;1.00;;;13.10;99.90;;;13.30;nan;100407.34;4950076;29;20632;-67
2023/05/11 04:05:53;;;;;;;2.17;1.37;;;13.00;99.90;;;13.33;nan;100406.25;4951130;29;20631;-67
2023/05/11 04:08:24;;;;;;;0.87;0.87;;;13.10;99.90;;;13.33;nan;100409.69;4948511;28;20726;-67
2023/05/11 04:10:55;;;;;;;1.13;1.13;;;13.10;99.90;;;13.35;nan;100404.34;4950324;29;20608;-70
2023/05/11 04:13:25;;;;;;;0.93;0.93;;;13.10;99.90;;;13.39;nan;100403.09;4951498;28;21076;-67
2023/05/11 04:15:53;;;;;;;0.80;0.80;;;13.20;99.90;;;13.36;nan;100405.97;4933255;29;20616;-67
2023/05/11 04:18:24;;;;;;;0.80;0.77;;;13.10;99.90;;;13.37;nan;100413.72;4949192;28;20667;-68
2023/05/11 04:20:51;;;;;;;0.93;0.87;;;13.20;99.90;;;13.35;nan;100413.03;4949216;28;20663;-68
2023/05/11 04:23:18;;;;;;;1.43;1.33;;;13.10;99.90;;;13.37;nan;100420.75;4951573;28;20632;-68
2023/05/11 04:25:44;;;;;;;1.33;1.20;;;13.10;99.90;;;13.37;nan;100418.97;4951391;28;20793;-67
2023/05/11 04:28:11;;;;;;;0.80;0.80;;;13.10;99.90;;;13.40;nan;100416.06;4948625;29;20714;-68
2023/05/11 04:30:38;;;;;;;1.30;1.20;;;13.20;99.90;;;13.41;nan;100416.91;4950223;28;20699;-68
2023/05/11 04:33:05;;;;;;;1.83;1.47;;;13.20;99.90;;;13.41;nan;100420.34;4951646;28;20584;-68
2023/05/11 04:35:32;;;;;;;1.30;1.20;;;13.20;99.90;;;13.41;nan;100430.84;4950589;28;20636;-67
2023/05/11 04:37:59;;;;;;;2.00;1.43;;;13.20;99.90;;;13.38;nan;100433.72;4967355;28;20662;-68
2023/05/11 04:40:26;;;;;;;1.07;1.00;;;13.10;99.90;;;13.39;nan;100430.16;4951054;28;20690;-68
2023/05/11 04:42:53;;;;;;;1.23;1.23;;;13.10;99.90;;;13.39;nan;100432.75;4950716;28;20616;-67
2023/05/11 04:45:20;;;;;;;1.63;1.53;;;13.10;99.90;;;13.40;nan;100441.44;4951526;28;20644;-68
2023/05/11 04:47:47;;;;;;;2.27;1.50;;;13.10;99.90;;;13.40;nan;100439.66;4952979;28;20648;-68
2023/05/11 04:50:14;;;;;;;1.10;1.07;;;13.20;99.90;;;13.44;nan;100440.22;4953909;28;20671;-67
2023/05/11 04:52:41;;;;;;;1.23;1.13;;;13.20;99.90;;;13.48;nan;100442.44;4953999;28;20616;-67
2023/05/11 04:55:08;;;;;;;3.30;1.70;;;13.20;99.90;;;13.51;nan;100436.94;4954333;28;20620;-67
2023/05/11 04:57:37;;;;;;;1.80;1.70;;;13.30;99.90;;;13.47;nan;100443.41;4954680;28;20678;-67
2023/05/11 05:00:08;;;;;;;1.33;1.23;;;13.30;99.90;;;13.53;nan;100445.50;4953775;28;20734;-68
2023/05/11 05:02:35;;;;;;;0.93;0.93;;;13.30;99.90;;;13.54;nan;100444.53;4952365;28;21023;-67
2023/05/11 05:05:03;;;;;;;0.90;0.90;;;13.30;99.90;;;13.55;nan;100445.34;4950847;28;20643;-68
2023/05/11 05:07:29;;;;;;;1.17;1.13;;;13.30;99.90;;;13.59;nan;100442.31;4948290;29;20728;-68
2023/05/11 05:09:57;;;;;;;1.90;1.80;;;13.40;99.90;;;13.67;nan;100441.69;4949316;29;20698;-68
2023/05/11 05:12:24;;;;;;;1.77;1.50;;;13.40;99.90;;;13.72;nan;100445.53;4952617;29;20675;-67
2023/05/11 05:14:50;;;;;;;1.90;1.80;;;13.50;99.90;;;13.81;nan;100449.16;4952201;28;21269;-67
2023/05/11 05:17:17;;;;;;;2.03;1.83;;;13.60;99.90;;;13.86;nan;100449.59;4953503;28;20674;-68
2023/05/11 05:19:44;;;;;;;1.70;1.63;;;13.60;99.90;;;13.91;nan;100455.22;4957657;28;20667;-69
2023/05/11 05:22:11;;;;;;;1.83;1.30;;;13.70;99.90;;;13.97;nan;100458.16;4954020;29;20596;-66
2023/05/11 05:24:38;;;;;;;2.17;1.47;;;13.70;99.90;;;14.05;nan;100456.66;4937911;29;20642;-67
2023/05/11 05:27:05;;;;;;;1.73;1.63;;;13.80;99.90;;;14.10;nan;100459.69;4952676;29;20607;-68
2023/05/11 05:29:32;;;;;;;1.07;1.07;;;13.80;99.90;;;14.18;nan;100451.97;4951447;28;20627;-67
2023/05/11 05:31:59;;;;;;;1.77;1.50;;;13.90;99.90;;;14.24;nan;100449.63;4951411;28;20628;-68
2023/05/11 05:34:26;;;;;;;2.03;1.90;;;14.00;99.90;;;14.32;nan;100459.44;4941582;28;20627;-67
2023/05/11 05:36:53;;;;;;;1.70;1.57;;;14.10;99.90;;;14.39;nan;100457.94;4951151;28;20644;-69
2023/05/11 05:39:20;;;;;;;1.60;1.50;;;14.10;99.90;;;14.43;nan;100457.53;4950362;28;20673;-67
2023/05/11 05:41:47;;;;;;;1.47;1.37;;;14.20;99.90;;;14.50;nan;100465.66;4952639;28;20616;-69
2023/05/11 05:44:14;;;;;;;1.70;1.60;;;14.20;99.90;;;14.57;nan;100461.50;4951091;29;20645;-67
2023/05/11 05:46:41;;;;;;;2.33;1.80;;;14.30;99.90;;;14.54;nan;100461.81;4954792;28;20603;-68
2023/05/11 05:49:08;;;;;;;1.53;1.43;;;14.30;99.90;;;14.56;nan;100465.94;4951212;28;20640;-67
2023/05/11 05:51:35;;;;;;;1.37;1.30;;;14.30;99.90;;;14.62;nan;100468.00;4952407;28;20632;-68
2023/05/11 05:54:02;;;;;;;4.63;1.60;;;14.40;99.90;;;14.68;nan;100471.84;4952689;28;21054;-67
2023/05/11 05:56:30;;;;;;;1.97;1.80;;;14.40;99.90;;;14.74;nan;100468.66;4952090;28;20659;-67
2023/05/11 05:58:57;;;;;;;1.93;1.80;;;14.50;99.90;;;14.81;nan;100467.16;4946632;28;20660;-67
2023/05/11 06:01:24;;;;;;;2.20;2.00;;;14.50;99.90;;;14.87;nan;100466.56;4951166;28;20745;-67
2023/05/11 06:03:52;;;;;;;2.40;1.83;;;14.60;99.90;;;14.96;nan;100468.34;4951145;28;20640;-69
2023/05/11 06:06:19;;;;;;;2.10;1.50;;;14.70;99.90;;;14.92;nan;100479.28;4949952;28;20639;-65
2023/05/11 06:08:46;;;;;;;1.53;1.43;;;14.70;99.90;;;14.96;nan;100468.34;4954962;28;20670;-68
2023/05/11 06:11:14;;;;;;;2.60;2.20;;;14.70;99.90;;;15.05;nan;100475.41;4952979;28;20576;-68
2023/05/11 06:13:41;;;;;;;1.60;1.50;;;14.80;99.90;;;15.14;nan;100478.97;4944267;28;21107;-67
2023/05/11 06:16:08;;;;;;;1.33;1.27;;;14.90;99.90;;;15.20;nan;100479.22;4949162;28;20639;-68
2023/05/11 06:18:35;;;;;;;1.63;1.40;;;15.00;99.90;;;15.29;nan;100480.16;4947385;28;21346;-69
2023/05/11 06:21:02;;;;;;;1.10;1.10;;;15.00;99.90;;;15.35;nan;100484.84;4947211;28;21042;-68
2023/05/11 06:23:29;;;;;;;1.90;1.80;;;15.10;99.90;;;15.39;nan;100481.78;4944337;28;20619;-66
2023/05/11 06:25:56;;;;;;;1.60;1.50;;;15.10;99.90;;;15.44;nan;100486.63;4943370;28;20651;-69
2023/05/11 06:28:23;;;;;;;1.47;1.40;;;15.20;99.90;;;15.53;nan;100489.22;4960072;28;20691;-68
2023/05/11 06:30:50;;;;;;;1.73;1.63;;;15.30;99.90;;;15.61;nan;100492.94;4952922;28;20648;-69
2023/05/11 06:33:17;;;;;;;1.43;1.33;;;15.30;99.90;;;15.70;nan;100484.16;4945408;28;21123;-67
2023/05/11 06:35:44;;;;;;;2.07;1.50;;;15.40;99.90;;;15.77;nan;100482.59;4952014;28;20647;-68
2023/05/11 06:38:11;;;;;;;1.37;1.37;;;15.50;99.90;;;15.86;nan;100476.47;4951481;28;20672;-68
2023/05/11 06:40:38;;;;;;;1.70;1.60;;;15.60;99.90;;;15.96;nan;100475.41;4949756;29;20660;-68
2023/05/11 06:43:05;;;;;;;1.43;1.33;;;15.70;99.90;;;16.04;nan;100475.50;4946333;28;20718;-67
2023/05/11 06:45:32;;;;;;;1.50;1.27;;;15.80;99.90;;;16.16;nan;100484.81;4941190;29;20647;-65
2023/05/11 06:47:59;;;;;;;1.97;1.60;;;15.90;99.90;;;16.24;nan;100473.56;4947321;28;20680;-68
2023/05/11 06:50:26;;;;;;;1.53;1.43;;;16.00;99.90;;;16.36;nan;100468.88;4950000;28;20647;-70
2023/05/11 06:52:54;;;;;;;1.40;1.37;;;16.10;99.90;;;16.37;nan;100473.19;4952607;29;20623;-69
2023/05/11 06:55:21;;;;;;;1.70;1.23;;;16.10;99.90;;;16.40;nan;100471.06;4952596;28;20690;-69
2023/05/11 06:57:48;;;;;;;1.50;1.40;;;16.10;99.90;;;16.36;nan;100474.97;4952431;28;20674;-68
2023/05/11 07:00:16;;;;;;;1.40;1.30;;;16.10;99.90;;;16.37;nan;100474.03;4951317;28;20683;-69
2023/05/11 07:02:43;;;;;;;1.20;1.20;;;16.10;99.90;;;16.42;nan;100469.09;4949931;28;20643;-71
2023/05/11 07:05:11;;;;;;;0.73;0.73;;;16.10;99.90;;;16.46;nan;100473.09;4944110;28;20632;-69
2023/05/11 07:07:38;;;;;;;1.30;1.20;;;16.20;99.90;;;16.48;nan;100478.22;4950778;28;21038;-67
2023/05/11 07:10:06;;;;;;;1.30;1.20;;;16.20;99.90;;;16.48;nan;100476.44;4950655;28;20682;-69
2023/05/11 07:12:33;;;;;;;0.70;0.70;;;16.20;99.90;;;16.49;nan;100475.44;4953105;28;20645;-70
2023/05/11 07:15:00;;;;;;;1.30;1.20;;;16.20;99.90;;;16.45;nan;100473.25;4950995;28;20640;-67
2023/05/11 07:17:27;;;;;;;1.27;0.70;;;16.20;99.90;;;16.54;nan;100480.28;4951895;28;20695;-73
2023/05/11 07:19:54;;;;;;;1.40;1.30;;;16.20;99.90;;;16.56;nan;100481.78;4952218;28;20623;-69
2023/05/11 07:22:23;;;;;;;0.83;0.83;;;16.30;99.90;;;16.62;nan;100478.53;4953325;28;21421;-69
2023/05/11 07:24:53;;;;;;;1.30;1.30;;;16.30;99.90;;;16.65;nan;100480.84;4966753;28;21216;-68
2023/05/11 07:27:31;;;;;;;1.13;1.07;;;16.40;99.90;;;16.72;nan;100484.53;4951045;28;20643;-67
2023/05/11 07:29:58;;;;;;;1.03;1.03;;;16.50;99.90;;;16.82;nan;100487.09;4951313;28;20659;-68
2023/05/11 07:32:31;;;;;;;1.17;1.17;;;16.60;99.90;;;16.91;nan;100486.16;4952710;28;20605;-69
2023/05/11 07:35:04;;;;;;;1.13;1.13;;;16.70;99.90;;;17.06;nan;100481.97;4949384;29;20627;-70
2023/05/11 07:37:31;;;;;;;1.00;1.00;;;16.80;99.90;;;17.13;nan;100480.38;4950937;28;20658;-70
2023/05/11 07:39:58;;;;;;;0.80;0.80;;;16.90;99.90;;;17.19;nan;100479.75;4949371;28;21111;-69
2023/05/11 07:42:28;;;;;;;1.03;1.03;;;16.90;99.90;;;17.29;nan;100479.66;4952048;29;21223;-69
2023/05/11 07:44:54;;;;;;;1.23;1.13;;;17.00;99.90;;;17.37;nan;100484.97;4951658;28;20635;-68
2023/05/11 07:47:22;;;;;;;0.97;0.97;;;17.10;99.90;;;17.46;nan;100481.38;4950225;28;20660;-69
2023/05/11 07:49:49;;;;;;;1.17;1.07;;;17.20;99.90;;;17.53;nan;100479.78;4949240;28;20626;-68
2023/05/11 07:52:16;;;;;;;1.13;1.13;;;17.20;99.90;;;17.61;nan;100485.13;4942493;28;20639;-69
2023/05/11 07:54:44;;;;;;;1.70;1.60;;;17.30;99.90;;;17.67;nan;100479.19;4964088;28;20640;-69
2023/05/11 07:57:12;;;;;;;1.60;1.50;;;17.40;99.90;;;17.73;nan;100483.84;4950234;29;21203;-68
2023/05/11 07:59:39;;;;;;;1.43;1.33;;;17.50;99.90;;;17.91;nan;100474.00;4949466;28;21059;-69
2023/05/11 08:02:08;;;;;;;1.50;1.03;;;17.60;99.90;;;18.07;nan;100481.13;4951631;28;20668;-68
2023/05/11 08:04:37;;;;;;;0.73;0.73;;;17.80;99.90;;;18.16;nan;100478.34;4948537;28;20631;-68
2023/05/11 08:07:04;;;;;;;1.20;1.10;;;17.90;99.90;;;18.17;nan;100485.28;4946836;28;21229;-67
2023/05/11 08:09:31;;;;;;;1.80;1.70;;;17.90;99.90;;;18.17;nan;100477.34;4947056;28;20656;-68
2023/05/11 08:12:00;;;;;;;1.70;1.60;;;17.90;99.90;;;18.24;nan;100478.38;4949481;28;20686;-68
2023/05/11 08:14:27;;;;;;;3.07;1.50;;;18.00;99.90;;;18.41;nan;100479.19;4963204;28;20650;-68
2023/05/11 08:16:54;;;;;;;1.30;1.30;;;18.10;99.90;;;18.53;nan;100481.38;4951207;28;20641;-67
2023/05/11 08:19:21;;;;;;;1.17;1.17;;;18.20;99.90;;;18.49;nan;100482.72;4956894;28;20667;-68
2023/05/11 08:21:48;;;;;;;1.20;1.20;;;18.20;99.90;;;18.42;nan;100488.78;4952796;28;20714;-68
2023/05/11 08:24:15;;;;;;;1.10;1.10;;;18.20;99.90;;;18.39;nan;100476.72;4954957;28;20617;-68
2023/05/11 08:26:42;;;;;;;1.50;1.40;;;18.20;99.90;;;18.38;nan;100483.00;4952927;28;21177;-67
2023/05/11 08:29:11;;;;;;;1.57;1.47;;;18.20;99.90;;;18.47;nan;100486.50;4953513;29;20668;-68
2023/05/11 08:31:39;;;;;;;1.10;1.10;;;18.20;99.90;;;18.56;nan;100477.59;4955443;28;20684;-69
2023/05/11 08:34:09;;;;;;;1.17;1.10;;;18.30;99.90;;;18.70;nan;100478.75;4954332;28;20651;-69
2023/05/11 08:36:44;;;;;;;7.17;1.67;;;18.40;99.90;;;18.86;nan;100491.94;4947166;28;20643;-66
2023/05/11 08:39:11;;;;;;;1.33;1.23;;;18.60;99.90;;;19.01;nan;100485.00;4952211;28;20682;-69
2023/05/11 08:41:39;;;;;;;0.77;0.77;;;18.80;99.90;;;19.10;nan;100484.78;4953294;29;20663;-69
2023/05/11 08:44:07;;;;;;;1.00;0.83;;;18.90;99.90;;;19.20;nan;100481.97;4955225;28;21107;-66
2023/05/11 08:46:35;;;;;;;1.33;1.13;;;19.00;99.90;;;19.36;nan;100487.25;4952440;29;21282;-67
2023/05/11 08:49:02;;;;;;;1.53;1.33;;;19.10;99.90;;;19.41;nan;100486.75;4954423;28;20668;-68
2023/05/11 08:51:30;;;;;;;1.40;1.40;;;19.20;99.90;;;19.40;nan;100485.91;4952282;28;20642;-68
2023/05/11 08:53:58;;;;;;;1.23;1.23;;;19.10;99.90;;;19.41;nan;100476.16;4952792;28;20624;-68
2023/05/11 08:56:28;;;;;;;1.17;1.17;;;19.20;99.90;;;19.25;nan;100490.25;4953291;28;20616;-67
2023/05/11 08:58:55;;;;;;;1.10;1.10;;;19.10;99.90;;;19.22;nan;100480.00;4953302;28;21255;-68
2023/05/11 09:01:27;;;;;;;1.13;1.10;;;19.00;99.90;;;19.15;nan;100482.47;4951118;28;20672;-67
2023/05/11 09:03:55;;;;;;;1.00;1.00;;;19.00;99.90;;;19.15;nan;100474.53;4963139;28;21066;-67
2023/05/11 09:06:25;;;;;;;1.23;1.20;;;18.90;99.90;;;19.13;nan;100479.19;4950578;28;20636;-68
2023/05/11 09:08:53;;;;;;;1.40;1.40;;;18.90;99.90;;;19.11;nan;100483.81;4967033;28;21317;-68
2023/05/11 09:11:21;;;;;;;1.17;1.17;;;18.90;99.90;;;19.11;nan;100488.28;4948079;28;20667;-66
2023/05/11 09:13:48;;;;;;;1.00;1.00;;;18.90;99.90;;;19.08;nan;100485.97;4952031;28;20642;-67
2023/05/11 09:16:15;;;;;;;1.43;1.33;;;18.90;99.90;;;18.96;nan;100489.94;4967692;28;20636;-67
2023/05/11 09:19:02;;;;;;;1.27;1.17;;;18.70;99.90;;;18.81;nan;100487.16;4958371;28;21442;-67
2023/05/11 09:21:30;;;;;;;1.50;1.40;;;18.60;99.90;;;18.62;nan;100481.38;4957307;28;20679;-67
2023/05/11 09:23:58;;;;;;;1.40;1.40;;;18.40;99.90;;;18.46;nan;100479.56;4953937;28;20604;-67
2023/05/11 09:26:28;;;;;;;1.37;1.30;;;18.30;99.90;;;18.44;nan;100485.00;4953402;28;20624;-67
2023/05/11 09:28:59;;;;;;;1.60;1.50;;;18.20;99.90;;;18.43;nan;100480.69;4952496;28;20799;-69
2023/05/11 09:31:44;;;;;;;1.53;1.40;;;18.20;99.90;;;18.46;nan;100482.22;4953210;28;20656;-67
2023/05/11 09:34:20;;;;;;;2.07;1.97;;;18.20;99.90;;;18.45;nan;100486.66;4952413;28;20644;-66
2023/05/11 09:36:51;;;;;;;1.70;1.60;;;18.10;99.90;;;18.48;nan;100483.69;4951478;29;20646;-66
2023/05/11 09:39:33;;;;;;;0.97;0.97;;;18.20;99.90;;;18.52;nan;100482.38;4952021;28;21231;-66
2023/05/11 09:42:18;;;;;;;1.43;1.33;;;18.20;99.90;;;18.57;nan;100487.16;4952327;29;21050;-65
2023/05/11 09:44:46;;;;;;;1.20;1.20;;;18.30;99.90;;;18.67;nan;100484.38;4949687;29;20632;-67
2023/05/11 09:47:21;;;;;;;1.70;1.60;;;18.30;99.90;;;18.73;nan;100481.06;4951333;28;20637;-66
2023/05/11 09:49:48;;;;;;;1.33;1.33;;;18.40;99.90;;;18.83;nan;100479.88;4952712;28;20627;-67
2023/05/11 09:52:17;;;;;;;1.33;1.23;;;18.50;99.90;;;18.97;nan;100473.94;4950712;28;20636;-66
2023/05/11 09:54:50;;;;;;;1.23;1.17;;;18.70;99.90;;;19.05;nan;100484.50;4950209;28;20694;-65
2023/05/11 09:57:30;;;;;;;1.63;1.53;;;18.70;99.90;;;18.79;nan;100478.56;4950311;29;20616;-65
2023/05/11 09:59:59;;;;;;;1.20;1.20;;;18.60;99.90;;;18.75;nan;100487.00;4951804;29;20643;-67
2023/05/11 10:02:30;;;;;;;1.33;1.27;;;18.50;99.90;;;18.83;nan;100482.53;4943320;28;20676;-68
2023/05/11 10:05:00;;;;;;;0.97;0.97;;;18.50;99.90;;;18.93;nan;100485.00;4952777;28;20643;-65
2023/05/11 10:07:30;;;;;;;1.43;1.33;;;18.60;99.90;;;19.00;nan;100476.22;4953917;29;20884;-66
2023/05/11 10:10:01;;;;;;;1.30;1.20;;;18.70;99.90;;;18.91;nan;100481.72;4956280;28;20656;-67
2023/05/11 10:12:31;;;;;;;1.03;1.03;;;18.70;99.90;;;18.96;nan;100472.28;4953762;29;20748;-69
2023/05/11 10:15:09;;;;;;;1.40;1.30;;;18.70;99.90;;;19.05;nan;100465.16;4953595;28;20655;-67
2023/05/11 10:17:36;;;;;;;1.70;1.57;;;18.80;99.90;;;19.15;nan;100471.91;4949337;28;20679;-68
2023/05/11 10:20:05;;;;;;;1.20;1.17;;;18.80;99.90;;;19.23;nan;100476.34;4951608;29;20612;-67
2023/05/11 10:22:32;;;;;;;4.83;1.60;;;18.90;99.90;;;19.28;nan;100474.84;4952593;28;20668;-68
2023/05/11 10:25:12;;;;;;;0.97;0.97;;;19.00;99.90;;;19.22;nan;100462.31;4953143;28;21369;-69
2023/05/11 10:27:42;;;;;;;1.20;1.20;;;18.90;99.90;;;19.25;nan;100475.19;4969318;28;20666;-69
2023/05/11 10:30:10;;;;;;;1.30;1.30;;;18.90;99.90;;;19.20;nan;100472.22;4952616;28;21015;-67
2023/05/11 10:32:37;;;;;;;0.97;0.97;;;18.90;99.90;;;19.15;nan;100463.13;4951274;29;20698;-64
2023/05/11 10:35:06;;;;;;;1.83;1.33;;;18.90;99.90;;;19.04;nan;100466.13;4953181;29;20652;-67